Details for Air Canada at CYYC




Go Back


Latest METAR
Local Time

CYYC 212300Z 09007KT 040V100 20SM SCT065CB BKN280 25/09 A2987 RMK CB4CI2 CB ANVIL OVHD SH DIST W SLP110 DENSITY ALT 5700FT

21/06/2018, 17:37:48

Description
Results
Air Canada Logo
Number of Pilots based at CYYC
0 Pilots Based here
Number of Air Canada Flights Departed from CYYC
0 Flights Departed
Number of Air Canada Flights Arrived at CYYC
0 Flights Arrived
Number of Air Canada Schedules Departing from CYYC
85 Schedules
Number of Air Canada Schedules Arriving at CYYC
77 Schedules
Number of Air Canada Schedules Departing from CYYC availible today
78 Schedules Today
Number of Air Canada Schedules Arriving at CYYC availible today
72 Schedules Today
Average Landing Rate at CYYC
-189 fpm
Air Canada Average Landing Rate at CYYC
0 fpm
Total Fuel Purchased at CYYC by Air Canada
0.00 kgs / 0.00 lbs

Pilots Based at CYYC


Pilot ID
Pilot Name
Pilot Rank
No. of Flights
No. of Flying Hours
There are no pilots assigned to this hub!   Will you be the first?
Content